createdAt,value
2022-08-22T00:00:24.117Z,1.25
2022-08-22T00:02:41.798Z,3.17
2022-08-22T00:03:01.115Z,3.78
2022-08-22T00:03:15.752Z,1.63
2022-08-22T00:03:16.136Z,1.10
2022-08-22T00:06:12.668Z,1.42
2022-08-22T00:09:05.768Z,1.30
2022-08-22T00:11:54.658Z,1.48
2022-08-22T00:14:42.736Z,1.20
2022-08-22T00:17:40.946Z,1.38
2022-08-22T00:20:30.263Z,1.13
2022-08-22T00:23:23.823Z,1.85
2022-08-22T00:26:16.502Z,1.92
2022-08-22T00:29:04.620Z,2.15
2022-08-22T00:31:52.317Z,1.83
2022-08-22T00:34:41.147Z,1.50
2022-08-22T00:37:29.894Z,1.60
2022-08-22T00:40:31.868Z,1.80
2022-08-22T00:43:44.727Z,1.55
2022-08-22T00:46:56.519Z,1.40
2022-08-22T00:50:06.988Z,1.45
2022-08-22T00:53:08.833Z,1.00
2022-08-22T00:56:10.309Z,1.50
2022-08-22T00:59:23.329Z,1.27
2022-08-22T01:02:21.973Z,0.95
2022-08-22T01:05:43.716Z,1.40
2022-08-22T01:08:47.813Z,1.15
2022-08-22T01:11:48.070Z,0.90
2022-08-22T01:14:46.692Z,0.82
2022-08-22T01:17:55.233Z,0.80
2022-08-22T01:21:24.383Z,0.70
2022-08-22T01:25:01.833Z,0.80
2022-08-22T01:28:24.427Z,0.93
2022-08-22T01:31:46.282Z,1.00
2022-08-22T01:35:10.710Z,0.82
2022-08-22T01:38:23.533Z,0.85
2022-08-22T01:41:34.427Z,0.88
2022-08-22T01:44:39.295Z,0.80
2022-08-22T01:47:27.975Z,0.85
2022-08-22T01:50:23.427Z,0.80
2022-08-22T01:53:11.847Z,0.88
2022-08-22T01:56:02.131Z,0.80
2022-08-22T01:58:54.965Z,0.90
2022-08-22T02:01:54.322Z,0.90
2022-08-22T02:04:53.395Z,0.80
2022-08-22T02:07:47.141Z,0.82
2022-08-22T02:10:48.240Z,0.90
2022-08-22T02:13:55.520Z,0.95
2022-08-22T02:16:42.281Z,0.70
2022-08-22T02:19:37.992Z,1.00
2022-08-22T02:22:34.028Z,0.77
2022-08-22T02:25:25.344Z,0.90
2022-08-22T02:28:13.791Z,0.80
2022-08-22T02:31:06.672Z,0.82
2022-08-22T02:33:54.916Z,0.80
2022-08-22T02:36:47.748Z,0.88
2022-08-22T02:39:36.889Z,0.93
2022-08-22T02:42:28.204Z,0.85
2022-08-22T02:45:25.837Z,1.10
2022-08-22T02:48:21.646Z,1.10
2022-08-22T02:51:18.193Z,1.00
2022-08-22T02:54:14.202Z,1.00
2022-08-22T02:57:02.722Z,0.85
2022-08-22T03:00:32.790Z,0.85
2022-08-22T03:03:21.430Z,1.10
2022-08-22T03:06:09.100Z,0.82
2022-08-22T03:09:06.655Z,1.10
2022-08-22T03:11:59.357Z,1.10
2022-08-22T03:14:48.438Z,1.00
2022-08-22T03:17:38.910Z,1.00
2022-08-22T03:20:41.621Z,1.30
2022-08-22T03:23:33.958Z,1.20
2022-08-22T03:26:25.053Z,1.23
2022-08-22T03:29:17.404Z,1.10
2022-08-22T03:32:12.987Z,1.00
2022-08-22T03:35:01.974Z,1.10
2022-08-22T03:37:46.039Z,1.30
2022-08-22T03:40:35.655Z,1.13
2022-08-22T03:43:39.960Z,1.30
2022-08-22T03:46:52.645Z,0.93
2022-08-22T03:50:01.595Z,1.10
2022-08-22T03:53:15.426Z,0.95
2022-08-22T03:56:41.431Z,1.00
2022-08-22T03:59:47.995Z,0.90
2022-08-22T04:02:58.616Z,1.00
2022-08-22T04:06:03.736Z,1.00
2022-08-22T04:09:29.136Z,1.10
2022-08-22T04:12:31.423Z,1.05
2022-08-22T04:15:46.135Z,0.93
2022-08-22T04:18:53.751Z,0.90
2022-08-22T04:21:59.649Z,0.90
2022-08-22T04:24:53.759Z,0.90
2022-08-22T04:27:42.518Z,1.10
2022-08-22T04:30:31.781Z,1.27
2022-08-22T04:33:20.783Z,0.85
2022-08-22T04:36:13.184Z,1.13
2022-08-22T04:39:03.859Z,1.00
2022-08-22T04:41:51.514Z,1.10
2022-08-22T04:44:43.105Z,0.95
2022-08-22T04:47:34.608Z,0.98
2022-08-22T04:50:23.592Z,1.00
2022-08-22T04:53:18.683Z,0.98
2022-08-22T04:58:58.128Z,1.00
2022-08-22T05:01:46.701Z,0.98
2022-08-22T05:04:33.378Z,1.00
2022-08-22T05:07:20.884Z,1.27
2022-08-22T05:10:11.900Z,1.00
2022-08-22T05:13:00.982Z,1.00
2022-08-22T05:15:48.595Z,1.17
2022-08-22T05:18:37.227Z,0.98
2022-08-22T05:21:24.458Z,0.95
2022-08-22T05:24:15.399Z,1.00
2022-08-22T05:27:06.649Z,0.90
2022-08-22T05:29:56.613Z,0.85
2022-08-22T05:32:49.000Z,0.98
2022-08-22T05:35:36.708Z,0.70
2022-08-22T05:38:27.523Z,0.60
2022-08-22T05:41:19.125Z,0.73
2022-08-22T05:44:03.495Z,1.15
2022-08-22T05:46:51.371Z,1.25
2022-08-22T05:49:39.895Z,1.40
2022-08-22T05:52:33.650Z,1.60
2022-08-22T05:55:26.236Z,1.40
2022-08-22T05:58:19.345Z,1.70
2022-08-22T06:01:13.598Z,1.33
2022-08-22T06:04:05.798Z,1.60
2022-08-22T06:06:58.297Z,1.80
2022-08-22T06:10:06.678Z,1.20
2022-08-22T06:12:57.536Z,1.02
2022-08-22T06:15:48.711Z,1.10
2022-08-22T06:18:33.794Z,1.38
2022-08-22T06:21:24.835Z,1.17
2022-08-22T06:24:14.192Z,1.83
2022-08-22T06:27:06.038Z,1.30
2022-08-22T06:29:53.092Z,1.33
2022-08-22T06:32:58.907Z,2.05
2022-08-22T06:36:05.100Z,1.10
2022-08-22T06:39:07.469Z,1.00
2022-08-22T06:41:53.823Z,1.20
2022-08-22T06:44:39.490Z,1.00
2022-08-22T06:47:25.909Z,1.05
2022-08-22T06:50:15.264Z,0.95
2022-08-22T06:53:02.406Z,1.00
2022-08-22T06:55:50.331Z,1.00
2022-08-22T06:58:39.000Z,1.10
2022-08-22T07:01:24.996Z,1.00
2022-08-22T07:04:11.254Z,1.30
2022-08-22T07:06:57.574Z,1.20
2022-08-22T07:09:42.342Z,1.10
2022-08-22T07:15:22.513Z,1.00
2022-08-22T07:18:09.855Z,1.23
2022-08-22T07:20:55.375Z,1.20
2022-08-22T07:23:44.596Z,1.25
2022-08-22T07:26:33.866Z,1.10
2022-08-22T07:29:27.408Z,1.20
2022-08-22T07:32:14.671Z,1.40
2022-08-22T07:35:09.465Z,1.20
2022-08-22T07:38:02.348Z,1.27
2022-08-22T07:40:53.830Z,1.48
2022-08-22T07:43:42.903Z,1.17
2022-08-22T07:46:32.625Z,1.30
2022-08-22T07:49:21.786Z,1.25
2022-08-22T07:52:08.609Z,1.17
2022-08-22T07:54:57.873Z,1.27
2022-08-22T07:57:44.598Z,1.10
2022-08-22T08:00:28.971Z,1.20
2022-08-22T08:03:13.938Z,1.17
2022-08-22T08:05:57.794Z,1.45
2022-08-22T08:08:44.339Z,1.20
2022-08-22T08:11:31.949Z,1.63
2022-08-22T08:14:17.380Z,1.95
2022-08-22T08:17:04.151Z,2.28
2022-08-22T08:19:50.716Z,1.98
2022-08-22T08:22:35.492Z,2.40
2022-08-22T08:25:22.576Z,2.08
2022-08-22T08:28:23.928Z,2.10
2022-08-22T08:31:14.073Z,1.92
2022-08-22T08:34:03.340Z,1.85
2022-08-22T08:36:52.411Z,2.30
2022-08-22T08:39:39.246Z,2.17
2022-08-22T08:43:10.636Z,1.52
2022-08-22T08:46:33.732Z,2.03
2022-08-22T08:49:28.283Z,1.58
2022-08-22T08:52:32.187Z,1.70
2022-08-22T08:55:28.070Z,1.50
2022-08-22T08:58:43.378Z,1.70
2022-08-22T09:01:47.666Z,1.88
2022-08-22T09:05:07.103Z,1.63
2022-08-22T09:08:03.923Z,1.42
2022-08-22T09:11:28.530Z,1.73
2022-08-22T09:14:36.896Z,1.45
2022-08-22T09:17:46.003Z,1.40
2022-08-22T09:20:48.188Z,1.10
2022-08-22T09:23:53.965Z,1.25
2022-08-22T09:26:48.096Z,1.63
2022-08-22T09:29:51.516Z,1.15
2022-08-22T09:32:47.049Z,0.98
2022-08-22T09:35:42.146Z,1.15
2022-08-22T09:41:31.955Z,1.27
2022-08-22T09:44:29.431Z,0.95
2022-08-22T09:47:24.313Z,0.93
2022-08-22T09:50:17.091Z,1.27
2022-08-22T09:53:10.289Z,1.02
2022-08-22T09:56:00.970Z,1.40
2022-08-22T09:59:06.650Z,1.20
2022-08-22T10:01:59.060Z,1.45
2022-08-22T10:04:53.984Z,1.20
2022-08-22T10:07:53.954Z,1.08
2022-08-22T10:11:02.063Z,1.08
2022-08-22T10:14:00.629Z,1.30
2022-08-22T10:17:00.657Z,1.00
2022-08-22T10:19:49.379Z,1.10
2022-08-22T10:22:44.477Z,1.20
2022-08-22T10:25:35.761Z,1.10
2022-08-22T10:28:28.801Z,0.85
2022-08-22T10:31:23.692Z,1.10
2022-08-22T10:34:12.873Z,0.90
2022-08-22T10:37:04.381Z,0.90
2022-08-22T10:40:02.580Z,0.90
2022-08-22T10:42:53.539Z,0.70
2022-08-22T10:45:40.490Z,0.80
2022-08-22T10:48:46.507Z,0.80
2022-08-22T10:51:44.663Z,0.90
2022-08-22T10:54:51.395Z,0.93
2022-08-22T10:57:49.416Z,0.70
2022-08-22T11:00:49.851Z,0.80
2022-08-22T11:03:43.621Z,0.95
2022-08-22T11:06:34.009Z,0.73
2022-08-22T11:09:32.139Z,0.90
2022-08-22T11:12:23.511Z,0.73
2022-08-22T11:15:28.339Z,1.15
2022-08-22T11:18:23.593Z,1.00
2022-08-22T11:21:10.954Z,1.38
2022-08-22T11:24:04.858Z,1.00
2022-08-22T11:27:00.127Z,1.00
2022-08-22T11:29:52.418Z,1.27
2022-08-22T11:32:39.907Z,1.17
2022-08-22T11:35:26.018Z,1.13
2022-08-22T11:38:21.290Z,0.80
2022-08-22T11:44:00.538Z,0.70
2022-08-22T11:46:49.191Z,0.75
2022-08-22T11:49:44.218Z,0.90
2022-08-22T11:52:51.672Z,0.82
2022-08-22T11:55:39.333Z,1.17
2022-08-22T11:58:28.967Z,0.95
2022-08-22T12:01:18.628Z,1.15
2022-08-22T12:04:10.183Z,0.77
2022-08-22T12:07:04.001Z,0.60
2022-08-22T12:09:51.980Z,0.70
2022-08-22T12:12:47.465Z,0.70
2022-08-22T12:15:40.477Z,0.80
2022-08-22T12:18:43.206Z,0.77
2022-08-22T12:22:03.183Z,1.00
2022-08-22T12:25:04.373Z,0.65
2022-08-22T12:27:56.642Z,0.88
2022-08-22T12:30:46.871Z,0.80
2022-08-22T12:33:48.276Z,0.90
2022-08-22T12:37:05.853Z,0.82
2022-08-22T12:40:09.794Z,0.73
2022-08-22T12:43:13.269Z,0.90
2022-08-22T12:46:15.096Z,0.80
2022-08-22T12:49:23.251Z,0.70
2022-08-22T12:52:25.100Z,1.08
2022-08-22T12:55:25.566Z,1.10
2022-08-22T12:58:17.732Z,0.90
2022-08-22T13:01:06.310Z,1.30
2022-08-22T13:03:54.681Z,1.05
2022-08-22T13:06:57.698Z,0.80
2022-08-22T13:09:47.616Z,0.77
2022-08-22T13:12:37.710Z,0.80
2022-08-22T13:15:31.181Z,1.25
2022-08-22T13:18:30.560Z,1.08
2022-08-22T13:21:17.759Z,1.02
2022-08-22T13:24:10.489Z,1.00
2022-08-22T13:27:01.093Z,1.10
2022-08-22T13:29:54.722Z,0.70
2022-08-22T13:32:44.246Z,0.85
2022-08-22T13:35:35.312Z,0.70
2022-08-22T13:38:26.127Z,0.85
2022-08-22T13:41:11.647Z,0.90
2022-08-22T13:44:11.635Z,1.05
2022-08-22T13:47:13.651Z,0.85
2022-08-22T13:50:07.269Z,1.08
2022-08-22T13:52:56.864Z,0.77
2022-08-22T13:55:49.152Z,0.70
2022-08-22T13:58:42.242Z,0.80
2022-08-22T14:01:38.791Z,0.98
2022-08-22T14:04:33.349Z,0.82
2022-08-22T14:07:28.232Z,1.02
2022-08-22T14:10:19.726Z,0.80
2022-08-22T14:13:39.728Z,1.20
2022-08-22T14:16:27.265Z,1.55
2022-08-22T14:19:23.289Z,1.20
2022-08-22T14:22:14.719Z,1.40
2022-08-22T14:25:01.524Z,1.20
2022-08-22T14:27:57.988Z,0.95
2022-08-22T14:31:01.911Z,1.38
2022-08-22T14:33:49.871Z,1.10
2022-08-22T14:36:41.281Z,1.00
2022-08-22T14:39:34.895Z,0.80
2022-08-22T14:42:22.930Z,1.27
2022-08-22T14:45:11.830Z,1.15
2022-08-22T14:48:29.711Z,1.00
2022-08-22T14:51:10.054Z,1.20
2022-08-22T14:53:53.986Z,1.23
2022-08-22T14:56:38.918Z,1.50
2022-08-22T14:59:33.715Z,1.27
2022-08-22T15:02:26.603Z,1.20
2022-08-22T15:05:19.785Z,1.00
2022-08-22T15:08:02.936Z,1.67
2022-08-22T15:10:49.020Z,1.70
2022-08-22T15:13:32.207Z,1.70
2022-08-22T15:16:20.044Z,1.40
2022-08-22T15:19:22.922Z,1.00
2022-08-22T15:22:15.739Z,1.00
2022-08-22T15:25:04.183Z,1.33
2022-08-22T15:27:53.838Z,1.00
2022-08-22T15:30:44.082Z,0.90
2022-08-22T15:33:32.251Z,1.20
2022-08-22T15:36:17.468Z,1.00
2022-08-22T15:39:30.312Z,1.10
2022-08-22T15:42:26.950Z,1.55
2022-08-22T15:45:21.109Z,1.38
2022-08-22T15:48:10.071Z,1.27
2022-08-22T15:51:00.114Z,1.60
2022-08-22T15:54:00.804Z,1.15
2022-08-22T15:57:16.343Z,1.65
2022-08-22T16:00:03.127Z,1.85
2022-08-22T16:03:01.529Z,1.42
2022-08-22T16:05:55.238Z,1.40
2022-08-22T16:08:50.382Z,1.30
2022-08-22T16:11:37.860Z,1.50
2022-08-22T16:14:25.662Z,1.10
2022-08-22T16:17:41.883Z,1.20
2022-08-22T16:20:51.858Z,1.60
2022-08-22T16:24:17.581Z,1.20
2022-08-22T16:27:18.885Z,1.10
2022-08-22T16:30:16.639Z,0.90
2022-08-22T16:33:00.666Z,1.00
2022-08-22T16:38:51.569Z,0.70
2022-08-22T16:41:40.290Z,0.75
2022-08-22T16:44:51.219Z,1.08
2022-08-22T16:47:43.054Z,1.05
2022-08-22T16:50:40.874Z,0.88
2022-08-22T16:54:01.549Z,1.00
2022-08-22T16:57:09.145Z,0.98
2022-08-22T17:00:07.485Z,1.10
2022-08-22T17:03:08.751Z,1.05
2022-08-22T17:06:04.719Z,0.85
2022-08-22T17:11:52.968Z,1.02
2022-08-22T17:14:47.423Z,1.00
2022-08-22T17:17:37.675Z,1.13
2022-08-22T17:20:33.874Z,1.15
2022-08-22T17:23:28.769Z,0.80
2022-08-22T17:26:21.548Z,1.85
2022-08-22T17:29:24.907Z,1.35
2022-08-22T17:32:18.575Z,0.93
2022-08-22T17:35:14.663Z,0.80
2022-08-22T17:38:21.121Z,1.23
2022-08-22T17:41:13.236Z,0.93
2022-08-22T17:44:08.818Z,1.05
2022-08-22T17:46:56.327Z,1.00
2022-08-22T17:49:52.307Z,0.82
2022-08-22T17:52:42.630Z,1.00
2022-08-22T17:55:32.580Z,0.85
2022-08-22T17:58:33.605Z,1.10
2022-08-22T18:01:40.895Z,1.10
2022-08-22T18:04:32.136Z,1.10
2022-08-22T18:07:50.261Z,1.05
2022-08-22T18:10:43.183Z,1.05
2022-08-22T18:13:37.999Z,1.00
2022-08-22T18:16:27.106Z,0.98
2022-08-22T18:19:20.348Z,1.00
2022-08-22T18:22:09.502Z,1.08
2022-08-22T18:25:00.840Z,1.05
2022-08-22T18:27:54.727Z,0.98
2022-08-22T18:30:51.871Z,1.00
2022-08-22T18:33:41.079Z,1.10
2022-08-22T18:36:31.322Z,1.00
2022-08-22T18:39:22.574Z,0.90
2022-08-22T18:42:11.592Z,1.02
2022-08-22T18:44:56.407Z,1.15
2022-08-22T18:50:32.698Z,0.95
2022-08-22T18:53:38.010Z,0.98
2022-08-22T18:56:50.236Z,0.82
2022-08-22T18:59:46.004Z,1.30
2022-08-22T19:02:57.731Z,1.10
2022-08-22T19:06:09.558Z,2.50
2022-08-22T19:09:16.120Z,1.95
2022-08-22T19:12:06.582Z,1.60
2022-08-22T19:15:07.357Z,2.20
2022-08-22T19:18:23.907Z,3.22
2022-08-22T19:21:40.264Z,1.85
2022-08-22T19:25:03.276Z,2.38
2022-08-22T19:28:08.661Z,2.10
2022-08-22T19:30:52.814Z,1.85
2022-08-22T19:33:42.239Z,1.60
2022-08-22T19:36:31.882Z,2.22
2022-08-22T19:39:44.744Z,1.90
2022-08-22T19:42:37.572Z,1.88
2022-08-22T19:45:25.757Z,3.10
2022-08-22T19:48:14.529Z,2.80
2022-08-22T19:51:12.771Z,2.53
2022-08-22T19:54:16.435Z,2.17
2022-08-22T19:57:10.936Z,2.05
2022-08-22T20:00:03.181Z,2.40
2022-08-22T20:03:01.971Z,1.85
2022-08-22T20:05:57.058Z,1.90
2022-08-22T20:11:45.415Z,1.90
2022-08-22T20:14:31.142Z,1.90
2022-08-22T20:17:35.753Z,2.45
2022-08-22T20:20:56.876Z,1.80
2022-08-22T20:23:40.196Z,1.83
2022-08-22T20:26:25.270Z,1.60
2022-08-22T20:29:08.436Z,1.75
2022-08-22T20:31:56.768Z,1.60
2022-08-22T20:34:43.298Z,1.80
2022-08-22T20:38:02.822Z,1.90
2022-08-22T20:40:56.959Z,1.88
2022-08-22T20:43:48.008Z,1.75
2022-08-22T20:46:44.871Z,1.70
2022-08-22T20:49:32.522Z,1.50
2022-08-22T20:52:27.301Z,1.50
2022-08-22T20:55:17.496Z,1.58
2022-08-22T20:58:03.530Z,1.60
2022-08-22T21:00:52.330Z,1.90
2022-08-22T21:03:41.284Z,1.75
2022-08-22T21:06:32.394Z,2.10
2022-08-22T21:09:38.853Z,2.40
2022-08-22T21:12:22.312Z,2.03
2022-08-22T21:15:06.203Z,1.90
2022-08-22T21:17:51.647Z,1.55
2022-08-22T21:20:37.628Z,2.00
2022-08-22T21:23:21.249Z,2.17
2022-08-22T21:26:08.043Z,1.90
2022-08-22T21:29:00.441Z,1.88
2022-08-22T21:31:47.755Z,3.38
2022-08-22T21:34:35.691Z,3.00
2022-08-22T21:37:26.185Z,3.10
2022-08-22T21:40:16.980Z,2.15
2022-08-22T21:43:03.823Z,1.75
2022-08-22T21:45:47.101Z,2.20
2022-08-22T21:48:43.820Z,1.65
2022-08-22T21:51:43.867Z,2.10
2022-08-22T21:54:40.695Z,2.28
2022-08-22T21:57:35.977Z,1.77
2022-08-22T22:00:41.859Z,1.80
2022-08-22T22:03:37.264Z,1.65
2022-08-22T22:06:20.454Z,2.10
2022-08-22T22:09:05.096Z,1.50
2022-08-22T22:11:48.221Z,1.77
2022-08-22T22:14:31.302Z,1.95
2022-08-22T22:17:14.399Z,2.05
2022-08-22T22:19:57.366Z,2.03
2022-08-22T22:22:46.007Z,2.00
2022-08-22T22:25:38.937Z,2.00
2022-08-22T22:28:29.319Z,2.50
2022-08-22T22:31:12.335Z,2.20
2022-08-22T22:33:55.496Z,2.65
2022-08-22T22:36:38.779Z,2.55
2022-08-22T22:39:21.873Z,2.30
2022-08-22T22:42:07.184Z,3.05
2022-08-22T22:47:34.830Z,3.10
2022-08-22T22:53:00.815Z,2.15
2022-08-22T22:55:43.904Z,2.20
2022-08-22T22:58:28.690Z,2.58
2022-08-22T23:03:57.446Z,2.70
2022-08-22T23:06:40.521Z,2.08
2022-08-22T23:09:37.944Z,2.20
2022-08-22T23:12:22.532Z,1.70
2022-08-22T23:15:08.070Z,1.80
2022-08-22T23:17:51.186Z,1.70
2022-08-22T23:20:34.271Z,1.40
2022-08-22T23:23:17.336Z,1.30
2022-08-22T23:26:00.572Z,1.95
2022-08-22T23:28:43.895Z,1.35
2022-08-22T23:31:31.982Z,1.00
2022-08-22T23:34:17.157Z,1.10
2022-08-22T23:37:02.394Z,0.82
2022-08-22T23:39:50.161Z,1.00
2022-08-22T23:42:33.315Z,1.00
2022-08-22T23:45:16.403Z,0.80
2022-08-22T23:48:01.010Z,0.80
2022-08-22T23:53:28.583Z,0.77
2022-08-22T23:56:19.442Z,1.05
2022-08-22T23:59:05.926Z,0.90
